createdAt,value
2022-12-23T18:25:42.042Z,10.02
2022-12-23T18:28:40.302Z,10.01
2022-12-23T18:31:38.428Z,10.00
2022-12-23T18:34:35.883Z,10.01
2022-12-23T18:37:33.311Z,9.99
2022-12-23T18:40:32.991Z,9.90
2022-12-23T18:43:30.878Z,9.78
2022-12-23T18:46:28.338Z,9.69
2022-12-23T18:49:25.876Z,9.57
2022-12-23T18:52:23.339Z,9.51
2022-12-23T18:55:20.902Z,9.45
2022-12-23T18:58:18.465Z,9.40
2022-12-23T19:01:15.958Z,9.37
2022-12-23T19:04:13.795Z,9.38
2022-12-23T19:07:11.359Z,9.35
2022-12-23T19:10:09.022Z,9.34
2022-12-23T19:13:06.686Z,9.36
2022-12-23T19:16:04.292Z,9.38
2022-12-23T19:19:01.950Z,9.37
2022-12-23T19:21:59.485Z,9.40
2022-12-23T19:25:05.317Z,9.43
2022-12-23T19:28:04.023Z,9.44
2022-12-23T19:31:01.505Z,9.46
2022-12-23T19:33:59.047Z,9.47
2022-12-23T19:36:56.606Z,9.45
2022-12-23T19:39:54.051Z,9.42
2022-12-23T19:42:51.857Z,9.37
2022-12-23T19:45:49.687Z,9.31
2022-12-23T19:48:47.163Z,9.24
2022-12-23T19:51:45.172Z,9.21
2022-12-23T19:54:43.393Z,9.17
2022-12-23T19:57:41.490Z,9.18
2022-12-23T20:00:39.671Z,9.22
2022-12-23T20:03:37.552Z,9.25
2022-12-23T20:06:34.988Z,9.23
2022-12-23T20:09:32.969Z,9.24
2022-12-23T20:12:31.044Z,9.23
2022-12-23T20:15:30.415Z,9.17
2022-12-23T20:18:30.225Z,9.12
2022-12-23T20:21:29.184Z,9.08
2022-12-23T20:24:27.598Z,9.03
2022-12-23T20:27:28.263Z,9.00
2022-12-23T20:30:28.624Z,9.02
2022-12-23T20:33:26.985Z,9.03
2022-12-23T20:36:24.583Z,9.05
2022-12-23T20:39:22.934Z,9.07
2022-12-23T20:42:20.694Z,9.08
2022-12-23T20:45:19.290Z,9.12
2022-12-23T20:48:18.194Z,9.15
2022-12-23T20:51:16.559Z,9.17
2022-12-23T20:54:14.119Z,9.16
2022-12-23T20:57:11.993Z,9.15
2022-12-23T21:00:09.549Z,9.14
2022-12-23T21:03:10.566Z,9.13
2022-12-23T21:06:08.467Z,9.13
2022-12-23T21:09:06.431Z,9.15
2022-12-23T21:12:03.973Z,9.20
2022-12-23T21:15:01.875Z,9.25
2022-12-23T21:17:59.752Z,9.29
2022-12-23T21:20:57.206Z,9.32
2022-12-23T21:23:54.764Z,9.34
2022-12-23T21:26:56.328Z,9.32
2022-12-23T21:29:54.513Z,9.27
2022-12-23T21:32:52.056Z,9.28
2022-12-23T21:35:49.931Z,9.22
2022-12-23T21:38:47.387Z,9.13
2022-12-23T21:41:46.394Z,9.12
2022-12-23T21:44:43.848Z,9.10
2022-12-23T21:47:41.839Z,9.11
2022-12-23T21:50:39.585Z,9.12
2022-12-23T21:53:37.459Z,9.15
2022-12-23T21:56:35.026Z,9.16
2022-12-23T21:59:35.120Z,9.18
2022-12-23T22:02:33.140Z,9.15
2022-12-23T22:05:31.182Z,9.15
2022-12-23T22:08:28.751Z,9.12
2022-12-23T22:11:27.214Z,9.12
2022-12-23T22:14:24.659Z,9.13
2022-12-23T22:17:22.560Z,9.15
2022-12-23T22:20:20.129Z,9.15
2022-12-23T22:23:18.107Z,9.16
2022-12-23T22:26:20.231Z,9.14
2022-12-23T22:29:21.907Z,9.15
2022-12-23T22:32:19.344Z,9.13
2022-12-23T22:35:17.359Z,9.11
2022-12-23T22:38:14.777Z,9.08
2022-12-23T22:41:12.660Z,9.04
2022-12-23T22:44:10.152Z,9.01
2022-12-23T22:47:08.100Z,8.96
2022-12-23T22:50:05.591Z,8.93
2022-12-23T22:53:03.548Z,8.91
2022-12-23T22:56:01.019Z,8.89
2022-12-23T22:58:58.863Z,8.85
2022-12-23T23:01:56.415Z,8.79
2022-12-23T23:04:54.297Z,8.75
2022-12-23T23:07:51.764Z,8.69
2022-12-23T23:10:49.639Z,8.69
2022-12-23T23:13:47.200Z,8.65
2022-12-23T23:16:45.250Z,8.63
2022-12-23T23:19:42.741Z,8.60
2022-12-23T23:22:40.620Z,8.60
2022-12-23T23:25:38.173Z,8.59
2022-12-23T23:28:36.144Z,8.60
2022-12-23T23:31:42.918Z,8.59
2022-12-23T23:34:42.740Z,8.59
2022-12-23T23:37:40.194Z,8.60
2022-12-23T23:40:38.166Z,8.65
2022-12-23T23:43:35.627Z,8.73
2022-12-23T23:46:33.543Z,8.85
2022-12-23T23:49:31.265Z,9.08
2022-12-23T23:52:29.347Z,9.27
2022-12-23T23:55:27.616Z,9.45
2022-12-23T23:58:25.076Z,9.67
